createdAt,value
2023-03-25T00:02:01.746Z,23.63
2023-03-25T00:07:04.939Z,23.64
2023-03-25T00:12:08.078Z,23.66
2023-03-25T00:17:13.910Z,23.67
2023-03-25T00:22:16.793Z,23.65
2023-03-25T00:27:20.112Z,23.74
2023-03-25T00:32:24.448Z,23.78
2023-03-25T00:37:27.240Z,23.71
2023-03-25T00:42:30.603Z,23.79
2023-03-25T00:47:34.757Z,23.69
2023-03-25T00:52:38.328Z,23.81
2023-03-25T00:57:41.252Z,23.84
2023-03-25T01:02:46.738Z,23.80
2023-03-25T01:07:51.792Z,23.74
2023-03-25T01:12:54.631Z,23.83
2023-03-25T01:17:58.972Z,23.81
2023-03-25T01:23:01.808Z,23.84
2023-03-25T01:28:05.005Z,23.81
2023-03-25T01:33:09.195Z,23.86
2023-03-25T01:38:11.980Z,23.90
2023-03-25T01:43:15.303Z,23.87
2023-03-25T01:48:25.020Z,23.89
2023-03-25T01:53:31.020Z,23.86
2023-03-25T01:58:35.550Z,23.88
2023-03-25T02:03:45.825Z,23.83
2023-03-25T02:08:50.322Z,23.74
2023-03-25T02:13:53.321Z,23.77
2023-03-25T02:19:23.481Z,23.78
2023-03-25T02:24:57.904Z,23.78
2023-03-25T02:30:26.639Z,23.84
2023-03-25T02:35:49.780Z,23.80
2023-03-25T02:40:59.965Z,23.83
2023-03-25T02:46:08.983Z,23.81
2023-03-25T02:51:17.593Z,23.75
2023-03-25T02:56:26.806Z,23.80
2023-03-25T03:01:29.700Z,23.82
2023-03-25T03:06:37.691Z,23.71
2023-03-25T03:11:56.569Z,23.87
2023-03-25T03:17:06.551Z,23.81
2023-03-25T03:22:21.522Z,23.78
2023-03-25T03:27:33.812Z,23.85
2023-03-25T03:32:45.802Z,23.85
2023-03-25T03:37:56.339Z,23.86
2023-03-25T03:43:04.488Z,23.88
2023-03-25T03:48:13.508Z,23.81
2023-03-25T03:53:22.937Z,23.83
2023-03-25T03:58:33.458Z,23.89
2023-03-25T04:03:40.836Z,23.84
2023-03-25T04:08:53.301Z,23.89
2023-03-25T04:14:00.807Z,23.74
2023-03-25T04:19:03.945Z,23.84
2023-03-25T04:24:08.154Z,23.88
2023-03-25T04:29:13.791Z,23.82
2023-03-25T04:34:16.613Z,23.85
2023-03-25T04:39:22.539Z,23.89
2023-03-25T04:44:26.819Z,23.89
2023-03-25T04:49:29.784Z,23.83
2023-03-25T04:54:32.512Z,23.91
2023-03-25T04:59:36.744Z,23.93
2023-03-25T05:04:43.010Z,23.85
2023-03-25T05:09:45.962Z,23.86
2023-03-25T05:14:50.070Z,23.86
2023-03-25T05:19:52.913Z,23.95
2023-03-25T05:24:56.315Z,23.91
2023-03-25T05:30:00.774Z,23.84
2023-03-25T05:35:04.502Z,23.70
2023-03-25T05:40:15.497Z,23.74
2023-03-25T05:45:20.172Z,23.77
2023-03-25T05:50:23.291Z,23.77
2023-03-25T05:55:26.402Z,23.77
2023-03-25T06:00:30.982Z,23.71
2023-03-25T06:05:33.807Z,23.75
2023-03-25T06:10:36.874Z,23.71
2023-03-25T06:15:41.861Z,23.67
2023-03-25T06:20:44.688Z,23.75
2023-03-25T06:25:47.494Z,23.67
2023-03-25T06:30:52.718Z,23.60
2023-03-25T06:35:56.140Z,23.62
2023-03-25T06:40:58.924Z,23.66
2023-03-25T06:46:04.723Z,23.62
2023-03-25T06:51:26.375Z,23.64
2023-03-25T06:56:29.483Z,23.60
2023-03-25T07:01:34.019Z,23.52
2023-03-25T07:06:36.823Z,23.50
2023-03-25T07:11:40.070Z,23.34
2023-03-25T07:16:44.586Z,23.39
2023-03-25T07:21:47.796Z,23.36
2023-03-25T07:26:50.568Z,23.39
2023-03-25T07:31:58.020Z,23.38
2023-03-25T07:37:00.777Z,23.29
2023-03-25T07:42:04.048Z,23.32
2023-03-25T07:47:28.203Z,23.29
2023-03-25T07:52:31.081Z,23.25
2023-03-25T07:57:33.818Z,23.20
2023-03-25T08:02:39.259Z,23.00
2023-03-25T08:07:42.054Z,23.05
2023-03-25T08:12:45.648Z,23.10
2023-03-25T08:17:49.871Z,22.53
2023-03-25T08:22:52.765Z,20.94
2023-03-25T08:27:55.828Z,21.44
2023-03-25T08:33:00.024Z,22.55
2023-03-25T08:38:04.900Z,22.81
2023-03-25T08:43:08.025Z,23.02
2023-03-25T08:48:12.967Z,23.13
2023-03-25T08:53:15.779Z,23.22
2023-03-25T08:58:18.531Z,23.25
2023-03-25T09:03:23.390Z,23.31
2023-03-25T09:08:26.170Z,23.31
2023-03-25T09:13:29.017Z,23.32
2023-03-25T09:18:33.153Z,23.24
2023-03-25T09:23:36.000Z,23.20
2023-03-25T09:28:38.969Z,23.34
2023-03-25T09:33:43.193Z,23.39
2023-03-25T09:38:46.740Z,23.27
2023-03-25T09:44:02.161Z,23.33
2023-03-25T09:49:10.831Z,23.43
2023-03-25T09:54:23.378Z,23.47
2023-03-25T09:59:37.977Z,23.54
2023-03-25T10:05:05.097Z,23.04
2023-03-25T10:10:17.925Z,23.40
2023-03-25T10:15:34.355Z,23.52
2023-03-25T10:20:48.445Z,22.93
2023-03-25T10:25:58.258Z,23.47
2023-03-25T10:31:04.241Z,23.57
2023-03-25T10:36:18.077Z,23.56
2023-03-25T10:41:26.853Z,23.67
2023-03-25T10:46:35.035Z,23.68
2023-03-25T10:51:39.830Z,23.68
2023-03-25T10:56:47.672Z,23.68
2023-03-25T11:01:52.206Z,23.68
2023-03-25T11:06:59.061Z,23.61
2023-03-25T11:12:03.105Z,23.61
2023-03-25T11:17:12.332Z,23.67
2023-03-25T11:22:19.607Z,23.68
2023-03-25T11:27:26.157Z,23.69
2023-03-25T11:32:34.857Z,23.75
2023-03-25T11:37:46.745Z,23.81
2023-03-25T11:42:54.895Z,23.81
2023-03-25T11:48:01.362Z,23.74
2023-03-25T11:53:07.232Z,23.66
2023-03-25T11:58:17.277Z,23.74
2023-03-25T12:03:23.131Z,23.64
2023-03-25T12:08:30.907Z,23.63
2023-03-25T12:13:50.202Z,23.60
2023-03-25T12:19:12.470Z,23.64
2023-03-25T12:24:29.388Z,23.53
2023-03-25T12:29:42.532Z,23.55
2023-03-25T12:34:58.648Z,23.62
2023-03-25T12:40:23.704Z,23.64
2023-03-25T12:45:39.802Z,23.69
2023-03-25T12:50:54.711Z,23.78
2023-03-25T12:56:14.189Z,23.70
2023-03-25T13:01:29.265Z,23.85
2023-03-25T13:06:39.010Z,23.77
2023-03-25T13:11:49.403Z,23.50
2023-03-25T13:16:56.281Z,23.38
2023-03-25T13:22:04.449Z,23.18
2023-03-25T13:27:11.711Z,22.67
2023-03-25T13:32:21.047Z,22.93
2023-03-25T13:37:29.208Z,23.34
2023-03-25T13:42:42.767Z,23.37
2023-03-25T13:47:50.095Z,23.49
2023-03-25T13:52:59.385Z,23.46
2023-03-25T13:58:24.392Z,23.57
2023-03-25T14:03:52.089Z,23.51
2023-03-25T14:09:21.927Z,23.58
2023-03-25T14:14:27.252Z,23.72
2023-03-25T14:19:35.076Z,23.91
2023-03-25T14:24:38.067Z,23.74
2023-03-25T14:29:44.801Z,23.84
2023-03-25T14:34:49.374Z,23.74
2023-03-25T14:39:52.210Z,23.71
2023-03-25T14:45:34.248Z,23.81
2023-03-25T14:50:37.462Z,23.62
2023-03-25T14:55:44.981Z,23.84
2023-03-25T15:00:54.865Z,23.81
2023-03-25T15:06:00.689Z,23.69
2023-03-25T15:11:07.385Z,23.66
2023-03-25T15:16:21.089Z,23.70
2023-03-25T15:21:25.620Z,23.98
2023-03-25T15:26:31.788Z,23.87
2023-03-25T15:31:48.411Z,23.80
2023-03-25T15:37:14.142Z,23.78
2023-03-25T15:42:51.426Z,23.71
2023-03-25T15:48:21.369Z,23.72
2023-03-25T15:53:49.822Z,23.66
2023-03-25T15:58:57.773Z,23.46
2023-03-25T16:04:07.341Z,23.69
2023-03-25T16:09:15.902Z,23.78
2023-03-25T16:14:20.138Z,23.69
2023-03-25T16:19:27.614Z,23.70
2023-03-25T16:24:34.454Z,23.69
2023-03-25T16:29:41.305Z,23.63
2023-03-25T16:34:47.305Z,23.79
2023-03-25T16:39:53.357Z,23.75
2023-03-25T16:44:56.603Z,23.63
2023-03-25T16:50:02.721Z,23.70
2023-03-25T16:55:29.596Z,23.70
2023-03-25T17:00:43.245Z,23.67
2023-03-25T17:06:04.508Z,23.83
2023-03-25T17:11:10.371Z,23.88
2023-03-25T17:16:14.510Z,23.88
2023-03-25T17:21:27.176Z,23.80
2023-03-25T17:26:35.310Z,24.00
2023-03-25T17:31:40.927Z,23.86
2023-03-25T17:36:47.849Z,24.01
2023-03-25T17:42:00.582Z,24.08
2023-03-25T17:47:03.488Z,24.15
2023-03-25T17:52:08.830Z,24.00
2023-03-25T17:57:17.012Z,23.87
2023-03-25T18:02:19.860Z,23.98
2023-03-25T18:07:23.920Z,24.05
2023-03-25T18:12:26.998Z,23.83
2023-03-25T18:17:29.810Z,23.77
2023-03-25T18:22:34.342Z,23.61
2023-03-25T18:27:43.689Z,23.85
2023-03-25T18:32:47.025Z,23.68
2023-03-25T18:37:51.302Z,23.83
2023-03-25T18:42:55.367Z,23.87
2023-03-25T18:47:58.380Z,23.90
2023-03-25T18:53:02.622Z,23.68
2023-03-25T18:58:05.493Z,23.83
2023-03-25T19:03:08.388Z,23.78
2023-03-25T19:08:18.493Z,23.68
2023-03-25T19:13:21.716Z,23.80
2023-03-25T19:18:27.146Z,23.88
2023-03-25T19:23:31.460Z,23.85
2023-03-25T19:28:34.438Z,23.90
2023-03-25T19:33:37.568Z,23.73
2023-03-25T19:38:42.684Z,23.82
2023-03-25T19:43:45.741Z,23.69
2023-03-25T19:48:48.540Z,23.84
2023-03-25T19:53:52.670Z,23.82
2023-03-25T19:58:55.717Z,23.79
2023-03-25T20:03:58.783Z,23.85
2023-03-25T20:09:03.064Z,24.01
2023-03-25T20:14:06.353Z,23.82
2023-03-25T20:19:09.465Z,23.87
2023-03-25T20:24:13.854Z,23.93
2023-03-25T20:29:19.563Z,23.93
2023-03-25T20:34:22.319Z,23.94
2023-03-25T20:39:26.544Z,23.79
2023-03-25T20:44:29.335Z,23.83
2023-03-25T20:49:32.805Z,23.80
2023-03-25T20:54:37.924Z,23.80
2023-03-25T20:59:41.417Z,23.82
2023-03-25T21:04:44.261Z,23.82
2023-03-25T21:09:49.310Z,23.65
2023-03-25T21:14:52.111Z,23.69
2023-03-25T21:19:55.029Z,23.56
2023-03-25T21:24:59.151Z,23.57
2023-03-25T21:30:01.958Z,23.50
2023-03-25T21:35:04.823Z,23.61
2023-03-25T21:40:11.644Z,23.68
2023-03-25T21:45:16.523Z,23.74
2023-03-25T21:50:19.372Z,23.65
2023-03-25T21:55:24.140Z,23.69
2023-03-25T22:00:27.286Z,23.60
2023-03-25T22:05:32.333Z,23.73
2023-03-25T22:10:36.849Z,23.73
2023-03-25T22:15:39.582Z,23.72
2023-03-25T22:20:42.355Z,23.72
2023-03-25T22:25:47.264Z,23.63
2023-03-25T22:30:50.078Z,23.60
2023-03-25T22:35:53.176Z,23.65
2023-03-25T22:40:57.542Z,23.64
2023-03-25T22:46:02.545Z,23.65
2023-03-25T22:51:06.527Z,23.64
2023-03-25T22:56:11.847Z,23.65
2023-03-25T23:01:20.394Z,23.56
2023-03-25T23:06:24.452Z,23.57
2023-03-25T23:11:30.350Z,23.63
2023-03-25T23:16:34.246Z,23.61
2023-03-25T23:21:38.093Z,23.70
2023-03-25T23:26:42.573Z,23.67
2023-03-25T23:31:45.472Z,23.65
2023-03-25T23:36:48.864Z,23.68
2023-03-25T23:41:53.058Z,23.78
2023-03-25T23:46:56.125Z,23.78
2023-03-25T23:52:00.012Z,23.77
2023-03-25T23:57:04.506Z,23.75
